createdAt,value
2017-08-17T00:00:54.065Z,81.80
2017-08-17T00:03:22.765Z,82.20
2017-08-17T00:05:51.771Z,82.40
2017-08-17T00:08:20.911Z,83.10
2017-08-17T00:10:49.288Z,83.10
2017-08-17T00:13:18.190Z,84.00
2017-08-17T00:15:47.024Z,84.00
2017-08-17T00:18:15.741Z,84.50
2017-08-17T00:20:44.677Z,84.70
2017-08-17T00:23:13.826Z,84.30
2017-08-17T00:25:42.519Z,84.30
2017-08-17T00:28:11.191Z,85.10
2017-08-17T00:30:39.520Z,84.50
2017-08-17T00:33:08.002Z,84.70
2017-08-17T00:35:36.862Z,84.30
2017-08-17T00:38:05.685Z,82.70
2017-08-17T00:40:34.458Z,81.60
2017-08-17T00:43:03.467Z,80.60
2017-08-17T00:45:31.759Z,80.60
2017-08-17T00:48:00.499Z,80.00
2017-08-17T00:50:29.319Z,81.10
2017-08-17T00:52:58.294Z,82.00
2017-08-17T00:55:26.941Z,83.30
2017-08-17T00:57:56.474Z,83.80
2017-08-17T01:00:25.867Z,85.40
2017-08-17T01:02:54.731Z,86.50
2017-08-17T01:05:23.382Z,87.70
2017-08-17T01:07:51.871Z,88.80
2017-08-17T01:10:20.778Z,89.40
2017-08-17T01:12:49.599Z,89.50
2017-08-17T01:15:18.386Z,89.90
2017-08-17T01:17:46.920Z,89.20
2017-08-17T01:20:15.696Z,87.70
2017-08-17T01:22:44.700Z,88.30
2017-08-17T01:25:13.432Z,88.30
2017-08-17T01:27:42.170Z,87.90
2017-08-17T01:30:11.622Z,86.50
2017-08-17T01:32:40.668Z,86.50
2017-08-17T01:35:09.671Z,86.70
2017-08-17T01:37:38.402Z,86.90
2017-08-17T01:40:07.025Z,86.10
2017-08-17T01:42:36.102Z,86.90
2017-08-17T01:45:05.158Z,87.20
2017-08-17T01:47:33.972Z,87.90
2017-08-17T01:50:03.081Z,87.90
2017-08-17T01:52:31.923Z,88.50
2017-08-17T01:55:00.804Z,89.40
2017-08-17T01:57:29.607Z,90.10
2017-08-17T01:59:58.560Z,90.30
2017-08-17T02:02:27.432Z,90.40
2017-08-17T02:04:56.043Z,90.30
2017-08-17T02:07:24.714Z,90.30
2017-08-17T02:09:54.101Z,90.10
2017-08-17T02:12:23.277Z,90.10
2017-08-17T02:14:52.242Z,89.40
2017-08-17T02:17:21.072Z,89.40
2017-08-17T02:19:49.967Z,89.40
2017-08-17T02:22:18.855Z,89.40
2017-08-17T02:24:47.592Z,89.00
2017-08-17T02:27:16.430Z,88.30
2017-08-17T02:29:45.859Z,87.60
2017-08-17T02:32:14.621Z,86.70
2017-08-17T02:34:43.249Z,86.50
2017-08-17T02:37:11.824Z,86.30
2017-08-17T02:39:40.481Z,85.80
2017-08-17T02:42:09.272Z,85.60
2017-08-17T02:44:37.889Z,85.20
2017-08-17T02:47:06.674Z,85.40
2017-08-17T02:49:35.535Z,86.00
2017-08-17T02:52:04.785Z,86.50
2017-08-17T02:54:33.634Z,87.20
2017-08-17T02:57:03.529Z,89.20
2017-08-17T02:59:32.098Z,89.20
2017-08-17T03:02:00.891Z,90.10
2017-08-17T03:04:29.426Z,90.70
2017-08-17T03:06:58.457Z,90.70
2017-08-17T03:09:27.280Z,90.70
2017-08-17T03:11:56.264Z,90.60
2017-08-17T03:14:24.820Z,90.60
2017-08-17T03:16:53.419Z,90.70
2017-08-17T03:19:22.301Z,90.90
2017-08-17T03:21:50.836Z,91.40
2017-08-17T03:24:19.661Z,91.80
2017-08-17T03:26:48.457Z,92.00
2017-08-17T03:29:17.138Z,91.80
2017-08-17T03:31:45.948Z,91.40
2017-08-17T03:34:14.977Z,91.00
2017-08-17T03:36:43.629Z,91.00
2017-08-17T03:39:12.374Z,91.20
2017-08-17T03:41:41.459Z,91.30
2017-08-17T03:44:10.684Z,91.10
2017-08-17T03:46:39.649Z,90.60
2017-08-17T03:49:08.205Z,90.10
2017-08-17T03:51:36.902Z,89.70
2017-08-17T03:54:05.779Z,89.00
2017-08-17T03:56:34.634Z,89.70
2017-08-17T03:59:03.681Z,89.00
2017-08-17T04:01:32.395Z,88.60
2017-08-17T04:04:01.632Z,88.60
2017-08-17T04:06:30.690Z,88.60
2017-08-17T04:08:59.548Z,88.50
2017-08-17T04:11:28.309Z,88.30
2017-08-17T04:13:56.803Z,87.90
2017-08-17T04:16:25.709Z,88.50
2017-08-17T04:18:54.606Z,88.50
2017-08-17T04:21:23.998Z,89.20
2017-08-17T04:23:52.697Z,89.20
2017-08-17T04:26:22.175Z,89.40
2017-08-17T04:28:50.981Z,89.70
2017-08-17T04:31:19.642Z,89.70
2017-08-17T04:33:49.432Z,89.90
2017-08-17T04:36:19.017Z,89.90
2017-08-17T04:38:48.430Z,90.10
2017-08-17T04:41:17.343Z,90.10
2017-08-17T04:43:45.971Z,90.10
2017-08-17T04:46:14.588Z,89.90
2017-08-17T04:48:43.482Z,89.70
2017-08-17T04:51:12.381Z,89.70
2017-08-17T04:53:40.917Z,89.40
2017-08-17T04:56:57.064Z,89.20
2017-08-17T04:59:27.267Z,89.20
2017-08-17T05:01:55.852Z,89.20
2017-08-17T05:04:24.650Z,89.20
2017-08-17T05:06:53.430Z,89.20
2017-08-17T05:09:22.349Z,89.00
2017-08-17T05:11:51.180Z,89.70
2017-08-17T05:14:20.023Z,90.20
2017-08-17T05:16:48.841Z,90.60
2017-08-17T05:19:17.642Z,90.80
2017-08-17T05:21:46.380Z,90.90
2017-08-17T05:24:15.338Z,90.40
2017-08-17T05:26:44.287Z,90.20
2017-08-17T05:29:12.920Z,90.10
2017-08-17T05:31:41.708Z,89.90
2017-08-17T05:34:10.444Z,90.10
2017-08-17T05:36:39.072Z,90.30
2017-08-17T05:39:07.935Z,90.10
2017-08-17T05:41:36.797Z,90.10
2017-08-17T05:44:05.502Z,90.20
2017-08-17T05:46:34.918Z,90.10
2017-08-17T05:49:03.635Z,90.10
2017-08-17T05:51:33.527Z,90.10
2017-08-17T05:54:03.614Z,89.90
2017-08-17T05:56:32.094Z,89.70
2017-08-17T05:59:00.999Z,89.70
2017-08-17T06:01:29.670Z,89.50
2017-08-17T06:03:58.489Z,89.70
2017-08-17T06:06:27.239Z,89.20
2017-08-17T06:08:56.172Z,88.10
2017-08-17T06:11:25.171Z,87.20
2017-08-17T06:13:53.955Z,85.80
2017-08-17T06:16:22.702Z,84.30
2017-08-17T06:18:51.790Z,83.10
2017-08-17T06:21:21.114Z,82.00
2017-08-17T06:23:50.027Z,80.90
2017-08-17T06:26:18.863Z,79.70
2017-08-17T06:28:47.727Z,78.20
2017-08-17T06:31:16.534Z,76.30
2017-08-17T06:33:45.127Z,75.40
2017-08-17T06:36:14.201Z,74.80
2017-08-17T06:38:43.213Z,74.10
2017-08-17T06:41:11.931Z,72.80
2017-08-17T06:43:41.051Z,70.30
2017-08-17T06:46:10.198Z,70.30
2017-08-17T06:48:39.173Z,70.00
2017-08-17T06:51:08.251Z,68.50
2017-08-17T06:53:37.236Z,67.40
2017-08-17T06:56:06.310Z,67.40
2017-08-17T06:58:35.127Z,66.40
2017-08-17T07:01:03.821Z,65.30
2017-08-17T07:03:32.555Z,64.40
2017-08-17T07:06:01.481Z,64.20
2017-08-17T07:08:30.395Z,62.20
2017-08-17T07:10:58.858Z,61.20
2017-08-17T07:13:28.777Z,63.10
2017-08-17T07:15:57.495Z,63.10
2017-08-17T07:18:26.288Z,64.60
2017-08-17T07:20:55.389Z,65.30
2017-08-17T07:23:24.202Z,65.80
2017-08-17T07:25:52.954Z,65.80
2017-08-17T07:28:22.062Z,66.90
2017-08-17T07:30:50.771Z,66.90
2017-08-17T07:33:19.503Z,65.50
2017-08-17T07:35:48.348Z,66.60
2017-08-17T07:38:17.270Z,65.50
2017-08-17T07:40:45.980Z,64.60
2017-08-17T07:43:15.484Z,66.20
2017-08-17T07:45:44.355Z,66.20
2017-08-17T07:48:13.537Z,65.80
2017-08-17T07:50:42.298Z,65.80
2017-08-17T07:53:11.046Z,65.10
2017-08-17T07:55:39.684Z,63.70
2017-08-17T07:58:08.428Z,62.80
2017-08-17T08:00:36.973Z,62.80
2017-08-17T08:03:05.993Z,63.10
2017-08-17T08:05:34.963Z,70.30
2017-08-17T08:08:04.189Z,71.40
2017-08-17T08:10:33.364Z,68.90
2017-08-17T08:13:02.115Z,69.20
2017-08-17T08:15:30.878Z,68.50
2017-08-17T08:18:00.272Z,67.60
2017-08-17T08:20:29.139Z,67.60
2017-08-17T08:22:58.726Z,67.30
2017-08-17T08:25:27.442Z,64.90
2017-08-17T08:27:56.383Z,67.30
2017-08-17T08:30:25.176Z,66.60
2017-08-17T08:32:54.411Z,64.40
2017-08-17T08:35:23.200Z,62.80
2017-08-17T08:37:52.057Z,62.10
2017-08-17T08:40:21.236Z,60.00
2017-08-17T08:42:49.817Z,60.00
2017-08-17T08:45:18.601Z,59.70
2017-08-17T08:47:47.393Z,58.50
2017-08-17T08:50:16.307Z,58.90
2017-08-17T08:52:45.538Z,59.20
2017-08-17T08:55:14.450Z,61.20
2017-08-17T08:57:43.223Z,64.40
2017-08-17T09:00:12.024Z,63.70
2017-08-17T09:02:40.948Z,59.80
2017-08-17T09:05:09.737Z,58.00
2017-08-17T09:07:39.060Z,54.80
2017-08-17T09:10:07.966Z,58.00
2017-08-17T09:12:37.974Z,59.80
2017-08-17T09:15:06.667Z,59.20
2017-08-17T09:17:35.780Z,57.20
2017-08-17T09:20:04.498Z,56.40
2017-08-17T09:22:34.001Z,57.90
2017-08-17T09:25:02.768Z,59.70
2017-08-17T09:27:32.217Z,59.20
2017-08-17T09:30:01.187Z,58.60
2017-08-17T09:32:29.951Z,56.40
2017-08-17T09:34:59.055Z,57.70
2017-08-17T09:37:27.806Z,57.00
2017-08-17T09:39:56.577Z,57.00
2017-08-17T09:42:25.399Z,53.50
2017-08-17T09:44:54.826Z,50.70
2017-08-17T09:47:23.702Z,50.70
2017-08-17T09:49:53.730Z,49.90
2017-08-17T09:52:22.377Z,49.90
2017-08-17T09:54:51.279Z,49.60
2017-08-17T09:57:19.595Z,52.70
2017-08-17T09:59:48.462Z,54.80
2017-08-17T10:02:17.687Z,51.70
2017-08-17T10:04:46.638Z,50.40
2017-08-17T10:07:15.502Z,49.20
2017-08-17T10:09:44.480Z,48.70
2017-08-17T10:12:12.991Z,49.00
2017-08-17T10:14:41.902Z,45.90
2017-08-17T10:17:10.966Z,44.90
2017-08-17T10:19:40.482Z,44.00
2017-08-17T10:22:08.999Z,44.00
2017-08-17T10:24:37.429Z,42.40
2017-08-17T10:27:06.160Z,42.20
2017-08-17T10:29:34.945Z,40.90
2017-08-17T10:32:03.526Z,41.50
2017-08-17T10:34:33.042Z,41.60
2017-08-17T10:37:02.287Z,41.80
2017-08-17T10:39:30.697Z,40.90
2017-08-17T10:41:59.565Z,41.00
2017-08-17T10:44:28.816Z,38.50
2017-08-17T10:46:57.537Z,38.50
2017-08-17T10:49:26.206Z,37.40
2017-08-17T10:51:54.890Z,37.90
2017-08-17T10:54:23.527Z,38.80
2017-08-17T10:56:52.581Z,38.80
2017-08-17T10:59:22.320Z,38.80
2017-08-17T11:01:51.908Z,39.00
2017-08-17T11:04:20.734Z,39.30
2017-08-17T11:06:49.442Z,40.30
2017-08-17T11:09:18.716Z,38.50
2017-08-17T11:11:47.746Z,37.60
2017-08-17T11:14:16.582Z,38.70
2017-08-17T11:16:45.594Z,37.60
2017-08-17T11:19:14.407Z,37.20
2017-08-17T11:21:43.087Z,36.30
2017-08-17T11:24:12.040Z,36.50
2017-08-17T11:26:41.499Z,35.10
2017-08-17T11:29:10.133Z,35.10
2017-08-17T11:31:38.872Z,35.00
2017-08-17T11:34:07.690Z,33.80
2017-08-17T11:36:36.455Z,35.00
2017-08-17T11:39:05.385Z,36.20
2017-08-17T11:41:34.619Z,36.80
2017-08-17T11:44:03.488Z,37.20
2017-08-17T11:46:32.328Z,38.20
2017-08-17T11:49:00.864Z,37.90
2017-08-17T11:51:29.718Z,37.90
2017-08-17T11:53:59.008Z,38.40
2017-08-17T11:56:28.149Z,38.40
2017-08-17T11:58:56.666Z,37.60
2017-08-17T12:01:25.441Z,36.80
2017-08-17T12:03:54.642Z,35.40
2017-08-17T12:06:23.531Z,35.40
2017-08-17T12:08:52.406Z,37.10
2017-08-17T12:11:21.475Z,36.50
2017-08-17T12:13:50.106Z,37.20
2017-08-17T12:16:18.883Z,39.60
2017-08-17T12:18:49.066Z,39.00
2017-08-17T12:21:17.996Z,39.40
2017-08-17T12:23:46.902Z,38.40
2017-08-17T12:26:15.792Z,38.50
2017-08-17T12:28:44.758Z,38.70
2017-08-17T12:31:13.757Z,36.90
2017-08-17T12:33:42.848Z,37.40
2017-08-17T12:36:11.681Z,37.40
2017-08-17T12:38:41.410Z,38.80
2017-08-17T12:41:10.196Z,39.40
2017-08-17T12:43:39.010Z,39.60
2017-08-17T12:46:07.720Z,39.60
2017-08-17T12:48:36.570Z,38.80
2017-08-17T12:51:05.305Z,39.70
2017-08-17T12:53:33.758Z,39.30
2017-08-17T12:56:02.568Z,39.00
2017-08-17T12:58:31.265Z,39.10
2017-08-17T13:01:00.142Z,39.00
2017-08-17T13:03:30.063Z,40.60
2017-08-17T13:05:58.492Z,41.20
2017-08-17T13:08:26.788Z,41.00
2017-08-17T13:10:55.671Z,40.90
2017-08-17T13:13:24.449Z,41.50
2017-08-17T13:15:53.510Z,41.80
2017-08-17T13:18:22.141Z,42.10
2017-08-17T13:20:50.898Z,42.40
2017-08-17T13:23:19.691Z,41.20
2017-08-17T13:25:48.626Z,41.50
2017-08-17T13:28:17.537Z,41.90
2017-08-17T13:30:46.639Z,42.80
2017-08-17T13:33:15.653Z,43.60
2017-08-17T13:35:44.411Z,43.70
2017-08-17T13:38:13.596Z,43.70
2017-08-17T13:40:42.263Z,44.10
2017-08-17T13:43:10.936Z,44.10
2017-08-17T13:45:39.984Z,44.90
2017-08-17T13:48:08.877Z,44.40
2017-08-17T13:50:37.475Z,44.60
2017-08-17T13:53:06.359Z,45.00
2017-08-17T13:55:35.036Z,45.00
2017-08-17T13:58:03.744Z,44.90
2017-08-17T14:00:32.396Z,44.30
2017-08-17T14:03:01.371Z,44.00
2017-08-17T14:05:30.040Z,44.30
2017-08-17T14:07:58.856Z,45.00
2017-08-17T14:10:27.470Z,45.30
2017-08-17T14:12:56.338Z,45.00
2017-08-17T14:15:25.043Z,44.90
2017-08-17T14:17:53.785Z,44.90
2017-08-17T14:20:22.468Z,44.90
2017-08-17T14:22:51.120Z,45.00
2017-08-17T14:25:20.849Z,44.70
2017-08-17T14:27:49.677Z,44.60
2017-08-17T14:30:18.351Z,44.70
2017-08-17T14:32:47.053Z,45.20
2017-08-17T14:35:15.815Z,45.30
2017-08-17T14:37:44.976Z,44.10
2017-08-17T14:40:14.067Z,44.10
2017-08-17T14:42:42.866Z,44.10
2017-08-17T14:45:11.705Z,44.40
2017-08-17T14:47:40.187Z,44.10
2017-08-17T14:50:09.054Z,44.30
2017-08-17T14:52:37.824Z,44.40
2017-08-17T14:55:06.683Z,44.60
2017-08-17T14:57:35.642Z,44.70
2017-08-17T15:00:04.626Z,44.90
2017-08-17T15:02:33.584Z,45.20
2017-08-17T15:05:02.360Z,45.00
2017-08-17T15:07:31.068Z,45.50
2017-08-17T15:09:59.893Z,45.80
2017-08-17T15:12:28.847Z,46.40
2017-08-17T15:14:57.580Z,46.10
2017-08-17T15:17:26.577Z,46.10
2017-08-17T15:19:56.098Z,46.50
2017-08-17T15:22:24.691Z,46.70
2017-08-17T15:24:53.424Z,46.80
2017-08-17T15:27:22.203Z,46.50
2017-08-17T15:29:51.026Z,46.40
2017-08-17T15:32:20.306Z,46.50
2017-08-17T15:34:49.150Z,46.50
2017-08-17T15:37:18.004Z,46.40
2017-08-17T15:39:46.598Z,46.70
2017-08-17T15:42:15.797Z,47.00
2017-08-17T15:44:44.640Z,47.10
2017-08-17T15:47:14.141Z,47.00
2017-08-17T15:49:43.064Z,47.30
2017-08-17T15:52:11.368Z,47.40
2017-08-17T15:54:40.180Z,47.50
2017-08-17T15:57:09.710Z,48.00
2017-08-17T15:59:38.544Z,48.40
2017-08-17T16:02:07.624Z,48.60
2017-08-17T16:04:36.444Z,48.10
2017-08-17T16:07:05.149Z,48.00
2017-08-17T16:09:33.788Z,48.30
2017-08-17T16:12:02.526Z,48.60
2017-08-17T16:14:32.038Z,48.90
2017-08-17T16:17:00.949Z,49.00
2017-08-17T16:19:29.844Z,49.00
2017-08-17T16:21:58.814Z,49.50
2017-08-17T16:24:28.122Z,49.80
2017-08-17T16:26:57.128Z,49.80
2017-08-17T16:29:25.801Z,49.50
2017-08-17T16:31:54.719Z,49.60
2017-08-17T16:34:23.433Z,49.90
2017-08-17T16:36:52.236Z,50.70
2017-08-17T16:39:20.980Z,50.90
2017-08-17T16:41:49.810Z,50.90
2017-08-17T16:44:18.855Z,50.90
2017-08-17T16:46:48.564Z,51.20
2017-08-17T16:49:17.124Z,51.20
2017-08-17T16:51:45.889Z,51.40
2017-08-17T16:54:14.999Z,51.70
2017-08-17T16:56:44.682Z,52.00
2017-08-17T16:59:13.733Z,52.00
2017-08-17T17:01:42.910Z,52.00
2017-08-17T17:04:11.581Z,51.50
2017-08-17T17:06:40.635Z,51.50
2017-08-17T17:09:09.535Z,51.50
2017-08-17T17:11:38.353Z,51.70
2017-08-17T17:14:07.940Z,51.80
2017-08-17T17:16:36.543Z,51.80
2017-08-17T17:19:06.107Z,51.50
2017-08-17T17:21:34.746Z,51.50
2017-08-17T17:24:03.586Z,51.20
2017-08-17T17:26:32.485Z,51.40
2017-08-17T17:29:01.271Z,51.50
2017-08-17T17:31:30.054Z,51.70
2017-08-17T17:33:58.877Z,51.80
2017-08-17T17:36:27.653Z,52.00
2017-08-17T17:38:56.889Z,52.10
2017-08-17T17:41:26.016Z,52.10
2017-08-17T17:44:29.160Z,52.40
2017-08-17T17:46:58.192Z,52.40
2017-08-17T17:49:27.027Z,53.00
2017-08-17T17:51:56.585Z,53.00
2017-08-17T17:54:25.165Z,53.30
2017-08-17T17:56:53.913Z,53.80
2017-08-17T17:59:23.076Z,54.10
2017-08-17T18:01:51.914Z,54.20
2017-08-17T18:04:20.966Z,54.30
2017-08-17T18:06:50.569Z,54.30
2017-08-17T18:09:19.368Z,54.10
2017-08-17T18:11:48.453Z,54.20
2017-08-17T18:14:17.190Z,54.30
2017-08-17T18:16:46.064Z,54.60
2017-08-17T18:19:15.491Z,54.50
2017-08-17T18:21:44.094Z,54.60
2017-08-17T18:24:12.540Z,54.90
2017-08-17T18:26:41.365Z,55.70
2017-08-17T18:29:10.266Z,55.50
2017-08-17T18:31:38.692Z,55.40
2017-08-17T18:34:07.530Z,54.90
2017-08-17T18:36:36.261Z,54.90
2017-08-17T18:39:05.253Z,54.80
2017-08-17T18:41:33.521Z,54.50
2017-08-17T18:44:01.831Z,55.10
2017-08-17T18:46:30.508Z,55.20
2017-08-17T18:48:59.514Z,55.80
2017-08-17T18:51:28.094Z,55.80
2017-08-17T18:53:56.857Z,55.80
2017-08-17T18:56:26.161Z,57.60
2017-08-17T18:58:54.982Z,59.10
2017-08-17T19:01:23.767Z,58.00
2017-08-17T19:03:52.815Z,59.70
2017-08-17T19:06:21.619Z,61.30
2017-08-17T19:08:50.164Z,59.70
2017-08-17T19:11:19.020Z,63.50
2017-08-17T19:13:47.489Z,59.80
2017-08-17T19:16:16.134Z,63.90
2017-08-17T19:18:44.903Z,62.40
2017-08-17T19:21:13.708Z,60.00
2017-08-17T19:23:42.646Z,59.80
2017-08-17T19:26:11.497Z,60.30
2017-08-17T19:28:40.620Z,63.10
2017-08-17T19:31:10.130Z,63.00
2017-08-17T19:33:38.900Z,63.90
2017-08-17T19:36:07.760Z,64.60
2017-08-17T19:38:37.011Z,63.70
2017-08-17T19:41:05.391Z,66.60
2017-08-17T19:43:34.411Z,65.10
2017-08-17T19:46:03.101Z,68.70
2017-08-17T19:48:32.012Z,67.30
2017-08-17T19:51:01.051Z,66.00
2017-08-17T19:53:29.768Z,66.40
2017-08-17T19:55:58.480Z,66.40
2017-08-17T19:58:27.675Z,67.30
2017-08-17T20:00:56.740Z,68.70
2017-08-17T20:03:25.754Z,68.90
2017-08-17T20:05:54.184Z,66.00
2017-08-17T20:08:23.658Z,67.40
2017-08-17T20:10:52.832Z,66.70
2017-08-17T20:13:21.591Z,67.30
2017-08-17T20:15:49.850Z,69.40
2017-08-17T20:18:18.192Z,71.60
2017-08-17T20:20:46.504Z,73.00
2017-08-17T20:23:14.754Z,72.50
2017-08-17T20:25:42.999Z,72.50
2017-08-17T20:28:11.310Z,71.60
2017-08-17T20:30:39.587Z,71.60
2017-08-17T20:33:08.168Z,69.60
2017-08-17T20:35:36.539Z,70.00
2017-08-17T20:38:04.783Z,70.90
2017-08-17T20:40:33.032Z,73.70
2017-08-17T20:43:01.365Z,76.80
2017-08-17T20:45:30.510Z,76.10
2017-08-17T20:47:58.851Z,76.40
2017-08-17T20:50:27.159Z,77.90
2017-08-17T20:52:55.426Z,78.20
2017-08-17T20:55:23.728Z,77.00
2017-08-17T20:57:54.528Z,77.30
2017-08-17T21:00:24.054Z,75.90
2017-08-17T21:02:52.897Z,73.20
2017-08-17T21:05:27.688Z,73.00
2017-08-17T21:07:55.954Z,71.90
2017-08-17T21:10:24.290Z,72.10
2017-08-17T21:12:52.666Z,72.50
2017-08-17T21:15:20.938Z,72.30
2017-08-17T21:17:49.228Z,72.70
2017-08-17T21:20:17.500Z,73.20
2017-08-17T21:22:45.795Z,72.50
2017-08-17T21:25:14.088Z,71.60
2017-08-17T21:27:42.348Z,71.60
2017-08-17T21:30:10.646Z,71.40
2017-08-17T21:32:45.507Z,70.70
2017-08-17T21:35:17.313Z,71.00
2017-08-17T21:37:46.502Z,70.90
2017-08-17T21:40:15.612Z,70.90
2017-08-17T21:42:43.901Z,71.80
2017-08-17T21:45:12.216Z,71.60
2017-08-17T21:47:40.456Z,71.40
2017-08-17T21:50:08.768Z,72.10
2017-08-17T21:52:37.372Z,71.90
2017-08-17T21:55:05.630Z,71.90
2017-08-17T21:57:33.877Z,72.30
2017-08-17T22:00:02.180Z,72.10
2017-08-17T22:02:30.497Z,72.10
2017-08-17T22:04:58.761Z,71.80
2017-08-17T22:07:27.364Z,72.10
2017-08-17T22:09:56.129Z,71.40
2017-08-17T22:12:24.522Z,71.40
2017-08-17T22:14:52.817Z,71.60
2017-08-17T22:17:21.092Z,71.00
2017-08-17T22:19:49.354Z,69.80
2017-08-17T22:22:17.641Z,69.40
2017-08-17T22:24:45.891Z,68.90
2017-08-17T22:27:14.261Z,68.70
2017-08-17T22:29:42.528Z,67.30
2017-08-17T22:32:10.765Z,66.40
2017-08-17T22:34:39.032Z,65.70
2017-08-17T22:37:07.323Z,65.10
2017-08-17T22:39:35.578Z,65.30
2017-08-17T22:42:03.857Z,64.80
2017-08-17T22:44:32.216Z,63.90
2017-08-17T22:47:00.524Z,63.50
2017-08-17T22:49:28.983Z,63.00
2017-08-17T22:51:57.288Z,62.40
2017-08-17T22:54:25.527Z,62.20
2017-08-17T22:56:53.753Z,61.90
2017-08-17T22:59:22.986Z,61.30
2017-08-17T23:01:51.257Z,61.00
2017-08-17T23:04:19.523Z,61.00
2017-08-17T23:06:48.484Z,60.60
2017-08-17T23:09:16.766Z,60.30
2017-08-17T23:11:45.007Z,60.10
2017-08-17T23:14:13.477Z,59.80
2017-08-17T23:16:41.712Z,59.80
2017-08-17T23:19:09.974Z,59.50
2017-08-17T23:21:38.264Z,59.50
2017-08-17T23:24:06.504Z,59.40
2017-08-17T23:26:34.753Z,59.50
2017-08-17T23:29:03.031Z,59.80
2017-08-17T23:31:31.274Z,59.70
2017-08-17T23:33:59.583Z,60.00
2017-08-17T23:36:28.173Z,59.50
2017-08-17T23:38:56.395Z,59.50
2017-08-17T23:41:24.644Z,59.40
2017-08-17T23:43:53.022Z,59.50
2017-08-17T23:46:21.284Z,59.20
2017-08-17T23:48:50.317Z,59.10
2017-08-17T23:51:18.630Z,59.20
2017-08-17T23:53:46.885Z,58.90
2017-08-17T23:56:15.115Z,59.10
2017-08-17T23:58:43.397Z,59.10
